Terminal Aerodrome Forecast
Issued by NWS

Current Version | Previous Version | Graphics & Text | Print | Product List | Glossary On
Versions: 1 2 3 4 5 6 7 8 9 10 11 12 13 14 15 16
000
FTUS41 KPBZ 181100
TAFMGW
TAF
KMGW 181140Z 1812/1912 VRB02KT 1/4SM FG VV001
      TEMPO 1812/1814 3SM BR SCT002
     FM181400 01005KT P6SM SCT050=

USA.gov is the U.S. government's official web portal to all federal, state and local government web resources and services.